Time;durP1;ratioP1;P1;durP2;ratioP2;P2;SDS_P1;SDS_P2;PMS_P1;PMS_P2;Temp;Humidity;BMP_temperature;BMP_pressure;BME280_temperature;BME280_humidity;BME280_pressure;Samples;Min_cycle;Max_cycle;Signal;HPM_P1;HPM_P2
2022/03/04 00:01:57;;;;;;;31.10;14.32;;;0.20;99.90;;;;;;5082077;28;20028;-81
2022/03/04 00:04:22;;;;;;;31.73;12.30;;;0.20;99.90;;;;;;5087876;28;20032;-81
2022/03/04 00:06:49;;;;;;;29.20;12.77;;;0.00;99.90;;;;;;5084807;28;20052;-82
2022/03/04 00:09:15;;;;;;;31.00;12.95;;;0.10;99.90;;;;;;5075822;28;20296;-82
2022/03/04 00:11:41;;;;;;;29.88;12.90;;;0.30;99.90;;;;;;5083733;28;20028;-82
2022/03/04 00:14:06;;;;;;;33.63;13.70;;;0.10;99.90;;;;;;5075129;28;20020;-82
2022/03/04 00:16:32;;;;;;;30.48;12.98;;;0.00;99.90;;;;;;5076203;28;20025;-82
2022/03/04 00:19:07;;;;;;;33.95;13.25;;;-0.10;1.00;;;;;;5076808;28;20045;-82
2022/03/04 00:21:43;;;;;;;35.08;13.88;;;-0.10;1.00;;;;;;5093232;28;20555;-82
2022/03/04 00:24:09;;;;;;;36.85;13.63;;;-0.20;1.00;;;;;;5083005;28;20041;-82
2022/03/04 00:26:36;;;;;;;31.25;12.65;;;-0.20;1.00;;;;;;5076864;28;20055;-81
2022/03/04 00:29:03;;;;;;;31.65;13.95;;;-0.20;1.00;;;;;;5088166;28;20009;-81
2022/03/04 00:31:28;;;;;;;32.65;13.02;;;-0.30;1.00;;;;;;5087576;28;20071;-81
2022/03/04 00:33:54;;;;;;;30.45;14.13;;;-0.20;1.00;;;;;;5091905;28;20415;-81
2022/03/04 00:36:23;;;;;;;32.60;13.18;;;-0.30;1.00;;;;;;5089859;28;20133;-82
2022/03/04 00:38:51;;;;;;;31.40;13.02;;;-0.30;1.00;;;;;;5084416;28;20029;-82
2022/03/04 00:41:18;;;;;;;31.00;13.02;;;-0.20;1.00;;;;;;5083181;28;20017;-82
2022/03/04 00:43:44;;;;;;;26.38;12.05;;;-0.40;1.00;;;;;;5094061;28;20025;-82
2022/03/04 00:46:10;;;;;;;27.40;12.32;;;-0.50;1.00;;;;;;5096445;28;20036;-81
2022/03/04 00:48:36;;;;;;;33.33;14.32;;;-0.40;1.00;;;;;;5096944;28;20454;-81
2022/03/04 00:51:02;;;;;;;29.52;12.48;;;-0.30;9.80;;;;;;5088590;28;20020;-82
2022/03/04 00:53:30;;;;;;;31.90;12.73;;;-0.20;9.20;;;;;;5087767;28;20333;-81
2022/03/04 00:55:55;;;;;;;35.03;13.82;;;-0.30;8.10;;;;;;5076786;28;20009;-81
2022/03/04 00:58:21;;;;;;;31.02;12.30;;;-0.20;42.40;;;;;;5077232;28;20021;-82
2022/03/04 01:00:47;;;;;;;31.33;13.32;;;-0.30;1.00;;;;;;5094561;28;20071;-82
2022/03/04 01:03:12;;;;;;;34.75;14.88;;;-0.50;1.00;;;;;;5076856;28;20112;-81
2022/03/04 01:05:38;;;;;;;31.02;13.25;;;-0.40;60.40;;;;;;5077076;28;20029;-82
2022/03/04 01:08:04;;;;;;;32.67;13.30;;;-0.60;1.00;;;;;;5085298;28;20017;-81
2022/03/04 01:10:30;;;;;;;31.60;13.32;;;-0.30;95.50;;;;;;5090785;28;20028;-82
2022/03/04 01:12:55;;;;;;;30.92;12.32;;;-0.40;88.20;;;;;;5094973;28;20036;-81
2022/03/04 01:15:21;;;;;;;32.20;12.82;;;-0.50;97.20;;;;;;5080816;28;20009;-81
2022/03/04 01:17:47;;;;;;;27.48;12.23;;;-0.50;95.10;;;;;;5076000;28;20013;-81
2022/03/04 01:20:13;;;;;;;34.58;13.95;;;-0.60;99.90;;;;;;5083831;28;20076;-81
2022/03/04 01:22:38;;;;;;;32.75;12.55;;;-0.60;99.90;;;;;;5082547;28;20046;-81
2022/03/04 01:25:04;;;;;;;30.70;13.07;;;-0.80;85.80;;;;;;5077141;28;20041;-82
2022/03/04 01:27:30;;;;;;;27.13;11.30;;;-0.90;96.40;;;;;;5086203;28;20017;-82
2022/03/04 01:29:56;;;;;;;35.00;13.43;;;-1.10;92.30;;;;;;5078589;28;20028;-81
2022/03/04 01:32:21;;;;;;;31.60;12.20;;;-1.00;99.90;;;;;;5094986;28;20023;-81
2022/03/04 01:34:47;;;;;;;28.77;11.73;;;-1.10;99.90;;;;;;5078593;28;20029;-81
2022/03/04 01:37:12;;;;;;;30.95;12.20;;;-1.20;99.90;;;;;;5073494;28;20021;-82
2022/03/04 01:39:38;;;;;;;28.05;12.77;;;-1.20;99.90;;;;;;5073935;28;20063;-82
2022/03/04 01:42:05;;;;;;;26.67;11.35;;;-1.20;99.90;;;;;;5073065;28;20029;-81
2022/03/04 01:44:30;;;;;;;29.65;12.77;;;-1.00;99.90;;;;;;5076320;28;20025;-82
2022/03/04 01:46:56;;;;;;;27.52;11.75;;;-1.10;99.90;;;;;;5076292;28;20013;-81
2022/03/04 01:49:23;;;;;;;23.63;11.80;;;-1.10;99.90;;;;;;5075400;28;20013;-81
2022/03/04 01:51:48;;;;;;;28.63;12.25;;;-0.90;99.90;;;;;;5075181;28;20036;-81
2022/03/04 01:54:15;;;;;;;31.95;12.13;;;-1.00;99.90;;;;;;5084171;28;20032;-81
2022/03/04 01:56:40;;;;;;;26.52;11.15;;;-0.90;99.90;;;;;;5081961;28;20087;-81
2022/03/04 01:59:06;;;;;;;27.52;12.52;;;-0.90;99.90;;;;;;5075879;28;20025;-81
2022/03/04 02:01:33;;;;;;;30.77;12.52;;;-1.00;99.90;;;;;;5069683;28;20088;-81
2022/03/04 02:03:59;;;;;;;30.25;13.77;;;-1.00;99.90;;;;;;5085496;28;20025;-81
2022/03/04 02:06:25;;;;;;;30.30;12.48;;;-1.00;99.90;;;;;;5084457;28;20406;-82
2022/03/04 02:08:51;;;;;;;27.92;12.05;;;-1.10;99.90;;;;;;5080113;28;20020;-81
2022/03/04 02:11:16;;;;;;;28.92;11.85;;;-1.10;99.90;;;;;;5079467;28;20044;-81
2022/03/04 02:13:43;;;;;;;31.83;10.90;;;-1.10;99.90;;;;;;5074221;28;20029;-81
2022/03/04 02:16:34;;;;;;;28.05;11.32;;;-1.30;99.90;;;;;;5074307;28;20017;-81
2022/03/04 02:19:00;;;;;;;24.40;10.50;;;-1.50;99.90;;;;;;5074036;28;20013;-81
2022/03/04 02:21:27;;;;;;;23.27;10.10;;;-1.50;99.90;;;;;;5091032;28;20059;-81
2022/03/04 02:23:52;;;;;;;25.73;10.32;;;-1.60;99.90;;;;;;5085252;28;20045;-81
2022/03/04 02:26:18;;;;;;;21.15;9.07;;;-1.70;99.90;;;;;;5088881;28;20040;-82
2022/03/04 02:28:45;;;;;;;25.98;10.23;;;-1.60;99.90;;;;;;5083389;28;20067;-81
2022/03/04 02:31:17;;;;;;;22.38;10.48;;;-1.50;99.90;;;;;;5088203;28;20341;-82
2022/03/04 02:33:44;;;;;;;18.67;8.32;;;-1.50;99.90;;;;;;5080980;28;20084;-82
2022/03/04 02:36:09;;;;;;;19.38;8.90;;;-1.40;99.90;;;;;;5076228;28;20033;-82
2022/03/04 02:38:35;;;;;;;21.13;9.23;;;-1.50;99.90;;;;;;5090539;28;20051;-81
2022/03/04 02:41:01;;;;;;;16.92;7.55;;;-1.30;99.90;;;;;;5078449;28;20014;-82
2022/03/04 02:43:26;;;;;;;16.35;6.65;;;-1.40;99.90;;;;;;5091116;28;20028;-82
2022/03/04 02:45:52;;;;;;;15.98;7.60;;;-1.20;99.90;;;;;;5087933;28;20024;-82
2022/03/04 02:48:18;;;;;;;17.02;7.88;;;-1.20;99.90;;;;;;5087103;28;20077;-82
2022/03/04 02:50:44;;;;;;;16.17;7.13;;;-1.30;99.90;;;;;;5079451;28;20013;-81
2022/03/04 02:53:09;;;;;;;20.02;8.85;;;-1.20;99.90;;;;;;5076626;28;20021;-82
2022/03/04 02:55:35;;;;;;;19.13;7.97;;;-1.10;99.90;;;;;;5074176;28;20032;-82
2022/03/04 02:58:02;;;;;;;20.27;8.88;;;-1.10;99.90;;;;;;5083324;28;20033;-82
2022/03/04 03:00:28;;;;;;;17.77;8.07;;;-1.30;99.90;;;;;;5076328;28;20092;-82
2022/03/04 03:02:54;;;;;;;15.52;7.25;;;-1.30;99.90;;;;;;5089545;28;20096;-82
2022/03/04 03:05:20;;;;;;;21.25;8.93;;;-1.30;99.90;;;;;;5084848;28;20024;-82
2022/03/04 03:07:46;;;;;;;17.00;8.63;;;-1.30;99.90;;;;;;5086020;28;20025;-82
2022/03/04 03:10:12;;;;;;;22.08;9.73;;;-1.40;99.90;;;;;;5086814;28;20089;-82
2022/03/04 03:12:38;;;;;;;17.58;8.75;;;-1.50;99.90;;;;;;5087673;28;20025;-82
2022/03/04 03:15:05;;;;;;;19.35;8.95;;;-1.40;99.90;;;;;;5081785;28;20033;-82
2022/03/04 03:17:31;;;;;;;17.45;7.53;;;-1.70;99.90;;;;;;5084729;28;20025;-82
2022/03/04 03:19:56;;;;;;;19.80;8.63;;;-1.60;99.90;;;;;;5076315;28;20084;-82
2022/03/04 03:22:22;;;;;;;18.98;8.65;;;-1.60;99.90;;;;;;5076256;28;20068;-82
2022/03/04 03:24:47;;;;;;;21.20;8.93;;;-1.60;99.90;;;;;;5086318;28;20047;-82
2022/03/04 03:27:14;;;;;;;17.23;8.27;;;-1.60;99.90;;;;;;5082148;28;20025;-82
2022/03/04 03:29:39;;;;;;;16.98;8.00;;;-1.70;99.90;;;;;;5076014;28;20024;-82
2022/03/04 03:32:05;;;;;;;22.58;8.68;;;-1.60;99.90;;;;;;5087062;28;20033;-82
2022/03/04 03:34:31;;;;;;;18.23;8.50;;;-1.50;99.90;;;;;;5089068;28;20020;-82
2022/03/04 03:36:56;;;;;;;20.50;9.57;;;-1.40;99.90;;;;;;5076203;28;20017;-82
2022/03/04 03:39:22;;;;;;;23.95;10.00;;;-1.60;99.90;;;;;;5080610;28;20052;-82
2022/03/04 03:41:47;;;;;;;19.65;9.18;;;-1.60;99.90;;;;;;5092224;28;20036;-82
2022/03/04 03:44:13;;;;;;;21.08;8.20;;;-1.70;99.90;;;;;;5079191;28;20013;-82
2022/03/04 03:46:38;;;;;;;17.80;7.78;;;-1.50;99.90;;;;;;5099486;28;20119;-82
2022/03/04 03:49:04;;;;;;;19.88;8.32;;;-1.60;99.90;;;;;;5080463;28;20017;-82
2022/03/04 03:51:30;;;;;;;20.20;8.75;;;-1.60;99.90;;;;;;5087622;28;20314;-82
2022/03/04 03:53:55;;;;;;;20.08;8.95;;;-1.60;99.90;;;;;;5079382;28;20056;-82
2022/03/04 03:56:21;;;;;;;23.35;8.98;;;-1.50;99.90;;;;;;5086095;28;20040;-82
2022/03/04 03:58:46;;;;;;;20.60;9.27;;;-1.60;99.90;;;;;;5087099;28;20064;-83
2022/03/04 04:01:12;;;;;;;22.40;8.55;;;-1.60;99.90;;;;;;5090570;28;20056;-82
2022/03/04 04:03:37;;;;;;;21.73;9.00;;;-1.70;99.90;;;;;;5090523;28;20036;-83
2022/03/04 04:06:03;;;;;;;20.55;7.88;;;-1.50;99.90;;;;;;5079209;28;20025;-82
2022/03/04 04:08:29;;;;;;;20.67;9.20;;;-1.70;99.90;;;;;;5091238;28;20016;-82
2022/03/04 04:10:54;;;;;;;27.02;9.30;;;-1.60;99.90;;;;;;5082256;28;20041;-83
2022/03/04 04:13:20;;;;;;;21.67;9.43;;;-1.60;99.90;;;;;;5089662;28;20050;-82
2022/03/04 04:15:45;;;;;;;19.25;9.48;;;-1.60;99.90;;;;;;5098684;28;20013;-83
2022/03/04 04:18:11;;;;;;;21.88;8.68;;;-1.70;99.90;;;;;;5096834;28;20017;-82
2022/03/04 04:20:37;;;;;;;22.75;8.77;;;-1.60;99.90;;;;;;5083008;28;20012;-83
2022/03/04 04:23:02;;;;;;;21.08;8.27;;;-1.70;99.90;;;;;;5081941;28;20029;-83
2022/03/04 04:25:28;;;;;;;24.15;10.40;;;-1.70;99.90;;;;;;5082060;28;20048;-83
2022/03/04 04:27:53;;;;;;;23.17;9.40;;;-1.60;99.90;;;;;;5097693;28;20017;-83
2022/03/04 04:30:19;;;;;;;20.95;9.02;;;-1.50;99.90;;;;;;5088598;28;20032;-82
2022/03/04 04:32:45;;;;;;;19.05;8.63;;;-1.60;99.90;;;;;;5078066;28;20028;-82
2022/03/04 04:35:11;;;;;;;19.90;9.25;;;-1.60;99.90;;;;;;5094683;28;20043;-82
2022/03/04 04:37:36;;;;;;;25.38;9.10;;;-1.60;99.90;;;;;;5078312;28;20020;-82
2022/03/04 04:40:04;;;;;;;23.38;9.93;;;-1.60;99.90;;;;;;5077966;28;20021;-83
2022/03/04 04:42:30;;;;;;;22.42;8.75;;;-1.60;99.90;;;;;;5088657;28;20145;-82
2022/03/04 04:44:55;;;;;;;24.65;9.48;;;-1.60;99.90;;;;;;5098029;28;20037;-83
2022/03/04 04:47:21;;;;;;;23.48;9.88;;;-1.50;99.90;;;;;;5081030;28;20017;-83
2022/03/04 04:49:46;;;;;;;31.52;11.63;;;-1.60;99.90;;;;;;5087941;28;20048;-82
2022/03/04 04:52:12;;;;;;;25.08;10.52;;;-1.40;99.90;;;;;;5086568;28;20037;-82
2022/03/04 04:54:38;;;;;;;24.38;10.05;;;-1.50;99.90;;;;;;5089011;28;20013;-82
2022/03/04 04:57:04;;;;;;;23.83;9.50;;;-1.70;99.90;;;;;;5089124;28;20017;-82
2022/03/04 04:59:29;;;;;;;25.75;9.40;;;-1.60;99.90;;;;;;5090892;28;20021;-82
2022/03/04 05:01:55;;;;;;;27.45;10.38;;;-1.70;99.90;;;;;;5078139;28;20033;-82
2022/03/04 05:04:20;;;;;;;21.70;8.93;;;-1.70;99.90;;;;;;5093608;28;20020;-82
2022/03/04 05:06:46;;;;;;;24.42;9.32;;;-1.80;99.90;;;;;;5077697;28;20028;-83
2022/03/04 05:09:11;;;;;;;22.85;10.70;;;-2.00;99.90;;;;;;5085762;28;20055;-82
2022/03/04 05:11:37;;;;;;;23.13;9.45;;;-1.80;99.90;;;;;;5079612;28;20021;-82
2022/03/04 05:14:02;;;;;;;24.13;10.25;;;-1.80;99.90;;;;;;5097415;28;20028;-83
2022/03/04 05:16:28;;;;;;;26.35;10.20;;;-1.80;99.90;;;;;;5088621;28;20038;-83
2022/03/04 05:18:54;;;;;;;26.38;11.93;;;-1.70;99.90;;;;;;5089229;28;20051;-83
2022/03/04 05:21:19;;;;;;;28.58;11.27;;;-1.70;99.90;;;;;;5088927;28;20046;-83
2022/03/04 05:24:00;;;;;;;22.80;8.93;;;-1.80;99.90;;;;;;5089538;28;20052;-84
2022/03/04 05:26:29;;;;;;;;;;;-1.80;99.90;;;;;;5097674;28;20036;-83
2022/03/04 05:28:55;;;;;;;25.80;10.75;;;-1.80;99.90;;;;;;5097498;28;19904;-82
2022/03/04 05:31:21;;;;;;;26.52;9.93;;;-1.70;99.90;;;;;;5075097;28;20052;-86
2022/03/04 05:33:47;;;;;;;30.25;10.95;;;-1.60;99.90;;;;;;5067840;28;20025;-86
2022/03/04 05:36:14;;;;;;;27.27;11.75;;;-1.80;99.90;;;;;;5058489;28;20047;-85
2022/03/04 05:38:40;;;;;;;22.45;10.02;;;-1.80;99.90;;;;;;5067247;28;20054;-85
2022/03/04 05:41:05;;;;;;;30.17;11.20;;;-1.80;99.90;;;;;;5070203;28;20496;-86
2022/03/04 05:43:31;;;;;;;24.90;10.05;;;-1.90;99.90;;;;;;5047849;28;20045;-85
2022/03/04 05:45:56;;;;;;;25.17;9.27;;;-1.90;99.90;;;;;;5055965;28;20036;-85
2022/03/04 05:48:22;;;;;;;26.90;10.30;;;-1.90;99.90;;;;;;5054142;28;20029;-86
2022/03/04 05:50:47;;;;;;;23.75;9.95;;;-2.00;99.90;;;;;;5057035;28;20051;-85
2022/03/04 05:53:14;;;;;;;22.58;9.88;;;-2.10;99.90;;;;;;5048146;28;20025;-85
2022/03/04 05:55:39;;;;;;;25.27;10.77;;;-2.00;99.90;;;;;;5045222;28;20026;-85
2022/03/04 05:58:05;;;;;;;24.23;9.77;;;-2.00;99.90;;;;;;5079025;28;20031;-85
2022/03/04 06:00:31;;;;;;;24.15;9.88;;;-2.00;99.90;;;;;;5063208;28;20017;-86
2022/03/04 06:02:57;;;;;;;24.23;10.60;;;-2.10;99.90;;;;;;5057377;28;20040;-86
2022/03/04 06:05:23;;;;;;;25.70;10.60;;;-2.10;99.90;;;;;;5060891;28;20024;-85
2022/03/04 06:07:48;;;;;;;25.17;10.10;;;-2.00;99.90;;;;;;5065676;28;20029;-86
2022/03/04 06:10:14;;;;;;;25.20;10.80;;;-2.10;99.90;;;;;;5066706;28;20082;-86
2022/03/04 06:12:41;;;;;;;27.38;11.93;;;-2.00;99.90;;;;;;5078097;28;20020;-85
2022/03/04 06:15:08;;;;;;;27.38;11.05;;;-1.90;99.90;;;;;;5065039;28;20021;-86
2022/03/04 06:17:33;;;;;;;26.35;10.43;;;-2.00;99.90;;;;;;5058061;28;20101;-84
2022/03/04 06:19:59;;;;;;;29.85;12.02;;;-2.10;99.90;;;;;;5057143;28;20029;-84
2022/03/04 06:22:25;;;;;;;26.55;11.07;;;-2.20;99.90;;;;;;5075532;28;20027;-85
2022/03/04 06:24:50;;;;;;;30.13;10.88;;;-2.20;99.90;;;;;;5084396;28;20075;-84
2022/03/04 06:27:16;;;;;;;25.08;11.43;;;-2.10;99.90;;;;;;5084945;28;20040;-84
2022/03/04 06:29:41;;;;;;;26.90;10.43;;;-2.10;99.90;;;;;;5070009;28;20025;-84
2022/03/04 06:32:07;;;;;;;26.13;10.90;;;-2.20;99.90;;;;;;5072416;28;20039;-84
2022/03/04 06:34:34;;;;;;;23.83;9.57;;;-2.20;99.90;;;;;;5081718;28;20040;-84
2022/03/04 06:37:00;;;;;;;28.70;11.30;;;-2.20;99.90;;;;;;5072120;28;20025;-84
2022/03/04 06:39:25;;;;;;;29.65;11.20;;;-2.20;99.90;;;;;;5065745;28;20036;-85
2022/03/04 06:41:51;;;;;;;26.52;11.48;;;-2.00;99.90;;;;;;5060652;28;20025;-84
2022/03/04 06:44:17;;;;;;;25.85;9.65;;;-2.10;99.90;;;;;;5063709;28;20653;-84
2022/03/04 06:46:42;;;;;;;33.63;14.05;;;-2.00;99.90;;;;;;5057725;28;20076;-84
2022/03/04 06:49:12;;;;;;;26.13;10.77;;;-1.70;99.90;;;;;;5064961;28;20024;-84
2022/03/04 06:51:38;;;;;;;32.22;11.65;;;-1.80;99.90;;;;;;5062969;28;20114;-84
2022/03/04 06:54:04;;;;;;;27.55;11.85;;;-1.60;99.90;;;;;;5067430;28;20064;-84
2022/03/04 06:56:30;;;;;;;31.00;11.70;;;-1.70;99.90;;;;;;5073445;28;20033;-84
2022/03/04 06:58:55;;;;;;;25.63;10.63;;;-1.70;99.90;;;;;;5069315;28;20033;-84
2022/03/04 07:01:21;;;;;;;31.20;12.52;;;-1.60;99.90;;;;;;5064544;28;20021;-81
2022/03/04 07:03:47;;;;;;;25.45;11.00;;;-1.60;99.90;;;;;;5070247;28;20025;-84
2022/03/04 07:06:13;;;;;;;27.92;11.85;;;-1.50;99.90;;;;;;5058005;28;20017;-84
2022/03/04 07:08:39;;;;;;;30.40;11.50;;;-1.50;99.90;;;;;;5066187;28;20046;-84
2022/03/04 07:11:05;;;;;;;26.83;10.98;;;-1.50;99.90;;;;;;5068154;28;20017;-83
2022/03/04 07:13:31;;;;;;;22.60;9.20;;;-1.40;99.90;;;;;;5063392;28;20492;-84
2022/03/04 07:15:56;;;;;;;27.85;10.98;;;-1.30;99.90;;;;;;5068896;28;20017;-83
2022/03/04 07:18:23;;;;;;;32.15;12.35;;;-1.10;99.90;;;;;;5063496;28;20021;-83
2022/03/04 07:20:49;;;;;;;28.45;11.27;;;-1.00;99.90;;;;;;5055319;28;20013;-84
2022/03/04 07:23:15;;;;;;;28.85;11.68;;;1.30;99.90;;;;;;5068688;28;20048;-83
2022/03/04 07:25:41;;;;;;;31.92;11.63;;;0.50;1.00;;;;;;5075857;28;20100;-83
2022/03/04 07:28:07;;;;;;;25.10;10.68;;;0.60;1.00;;;;;;5066580;28;20032;-82
2022/03/04 07:30:33;;;;;;;27.42;12.57;;;-0.20;99.90;;;;;;5072233;28;20005;-83
2022/03/04 07:32:59;;;;;;;28.85;11.38;;;-0.50;99.90;;;;;;5076857;28;20029;-83
2022/03/04 07:35:24;;;;;;;29.13;12.07;;;-0.70;99.90;;;;;;5056464;28;20089;-84
2022/03/04 07:37:50;;;;;;;26.65;11.52;;;-0.70;1.00;;;;;;5082082;28;20356;-84
2022/03/04 07:40:16;;;;;;;33.53;12.30;;;-0.60;1.00;;;;;;5068031;28;20096;-84
2022/03/04 07:42:42;;;;;;;29.77;12.45;;;-0.60;1.00;;;;;;5059003;28;20024;-84
2022/03/04 07:45:10;;;;;;;25.63;8.80;;;-0.70;1.00;;;;;;5061253;28;20036;-85
2022/03/04 07:47:37;;;;;;;37.85;13.13;;;-0.60;1.00;;;;;;5073709;28;20064;-83
2022/03/04 07:50:05;;;;;;;28.63;11.38;;;-0.70;1.00;;;;;;5074772;28;20029;-82
2022/03/04 07:52:31;;;;;;;31.60;11.88;;;-0.70;1.00;;;;;;5081268;28;20037;-82
2022/03/04 07:55:01;;;;;;;39.38;14.55;;;-0.80;1.00;;;;;;5078469;28;20072;-83
2022/03/04 07:57:26;;;;;;;36.65;13.43;;;-0.60;1.00;;;;;;5076507;28;20028;-84
2022/03/04 07:59:52;;;;;;;24.88;10.85;;;-0.70;1.00;;;;;;5067302;28;20027;-82
2022/03/04 08:02:17;;;;;;;28.77;12.73;;;-0.40;1.00;;;;;;5089089;28;20031;-82
2022/03/04 08:04:43;;;;;;;31.55;13.43;;;-0.40;1.00;;;;;;5072470;28;20025;-82
2022/03/04 08:07:08;;;;;;;33.97;12.98;;;-0.30;1.00;;;;;;5073078;28;20021;-83
2022/03/04 08:09:34;;;;;;;34.88;13.05;;;-0.30;1.00;;;;;;5068016;28;20013;-84
2022/03/04 08:11:59;;;;;;;31.88;12.98;;;-0.20;99.90;;;;;;5060202;28;20085;-83
2022/03/04 08:14:25;;;;;;;34.42;12.70;;;-0.10;99.90;;;;;;5062622;28;20104;-84
2022/03/04 08:16:51;;;;;;;34.05;13.35;;;-0.10;99.90;;;;;;5069673;28;20036;-84
2022/03/04 08:19:16;;;;;;;41.83;15.20;;;0.00;99.90;;;;;;5057188;28;20049;-85
2022/03/04 08:21:43;;;;;;;32.85;13.23;;;-0.20;99.90;;;;;;5058415;28;20032;-85
2022/03/04 08:24:09;;;;;;;40.78;14.38;;;-0.10;99.90;;;;;;5059932;28;20123;-84
2022/03/04 08:26:38;;;;;;;34.58;12.27;;;-0.30;99.90;;;;;;5060011;28;20116;-84
2022/03/04 08:29:10;;;;;;;33.55;13.85;;;0.10;99.90;;;;;;5066432;28;20032;-84
2022/03/04 08:31:36;;;;;;;40.30;14.20;;;-0.10;99.90;;;;;;5080335;28;20039;-85
2022/03/04 08:34:02;;;;;;;34.45;14.00;;;0.10;99.90;;;;;;5063968;28;20029;-84
2022/03/04 08:36:27;;;;;;;33.25;12.80;;;0.00;99.90;;;;;;5071879;28;20032;-85
2022/03/04 08:38:53;;;;;;;43.20;15.88;;;0.00;99.90;;;;;;5070958;28;20033;-85
2022/03/04 08:41:19;;;;;;;36.80;14.68;;;-0.10;99.90;;;;;;5062853;28;20033;-82
2022/03/04 08:43:46;;;;;;;36.90;14.30;;;0.10;1.00;;;;;;5059616;28;20094;-83
2022/03/04 08:46:13;;;;;;;44.10;15.35;;;0.30;99.90;;;;;;5060866;28;20028;-83
2022/03/04 08:48:40;;;;;;;42.78;17.33;;;0.00;99.90;;;;;;5071976;28;20055;-82
2022/03/04 08:51:05;;;;;;;36.38;15.23;;;-0.10;99.90;;;;;;5077958;28;20031;-82
2022/03/04 08:53:31;;;;;;;38.83;15.05;;;0.30;99.90;;;;;;5074427;28;20025;-82
2022/03/04 08:55:57;;;;;;;37.17;15.10;;;0.40;99.90;;;;;;5056162;28;20492;-82
2022/03/04 08:58:22;;;;;;;36.97;13.45;;;0.60;99.90;;;;;;5047201;28;20427;-82
2022/03/04 09:00:48;;;;;;;35.33;14.07;;;0.90;99.90;;;;;;5019077;28;20022;-83
2022/03/04 09:03:13;;;;;;;29.05;12.63;;;0.90;99.90;;;;;;5038857;28;20392;-83
2022/03/04 09:05:39;;;;;;;35.67;13.73;;;0.80;99.90;;;;;;5036462;28;20029;-82
2022/03/04 09:08:05;;;;;;;42.08;16.98;;;1.20;99.90;;;;;;5034583;28;20064;-82
2022/03/04 09:10:31;;;;;;;38.53;13.40;;;1.10;99.90;;;;;;5074930;28;20066;-82
2022/03/04 09:12:56;;;;;;;35.20;13.70;;;1.70;97.80;;;;;;5077957;28;20040;-82
2022/03/04 09:15:22;;;;;;;35.38;14.55;;;1.70;28.30;;;;;;5069607;28;20021;-84
2022/03/04 09:17:47;;;;;;;32.78;13.63;;;1.50;66.40;;;;;;5056242;28;20025;-85
2022/03/04 09:20:19;;;;;;;31.48;12.70;;;2.00;1.00;;;;;;5037608;28;20023;-86
2022/03/04 09:22:45;;;;;;;30.50;12.55;;;1.10;32.70;;;;;;5037777;28;20413;-86
2022/03/04 09:25:11;;;;;;;30.13;13.07;;;1.00;60.00;;;;;;5020054;28;20134;-85
2022/03/04 09:27:36;;;;;;;40.33;14.43;;;1.10;74.00;;;;;;5038998;28;20030;-85
2022/03/04 09:30:03;;;;;;;47.47;14.95;;;1.10;99.90;;;;;;5038586;28;20017;-85
2022/03/04 09:32:28;;;;;;;37.90;15.50;;;1.10;99.90;;;;;;5057915;28;20115;-85
2022/03/04 09:34:54;;;;;;;34.92;13.70;;;1.10;99.90;;;;;;5060348;28;20051;-85
2022/03/04 09:37:19;;;;;;;30.92;12.98;;;1.40;98.40;;;;;;5073889;28;20052;-86
2022/03/04 09:39:45;;;;;;;33.85;14.82;;;1.40;68.10;;;;;;5069385;28;20529;-86
2022/03/04 09:42:11;;;;;;;40.45;16.05;;;1.20;99.90;;;;;;5081528;28;20032;-84
2022/03/04 09:44:39;;;;;;;30.92;13.65;;;1.20;92.60;;;;;;5081950;28;20035;-84
2022/03/04 09:47:05;;;;;;;33.72;13.68;;;1.50;95.60;;;;;;5079145;28;20013;-84
2022/03/04 09:49:36;;;;;;;35.65;15.65;;;1.60;41.20;;;;;;5060772;28;20109;-82
2022/03/04 09:52:04;;;;;;;32.10;13.20;;;1.60;9.80;;;;;;5082504;28;20035;-84
2022/03/04 09:54:29;;;;;;;40.40;16.25;;;1.70;1.00;;;;;;5078568;28;20029;-83
2022/03/04 09:56:56;;;;;;;38.03;15.23;;;1.50;1.00;;;;;;5095556;28;20047;-83
2022/03/04 09:59:22;;;;;;;33.10;14.38;;;1.80;48.50;;;;;;5080267;28;20049;-83
2022/03/04 10:01:48;;;;;;;38.72;14.20;;;1.80;1.00;;;;;;5082823;28;20017;-83
2022/03/04 10:04:14;;;;;;;34.28;15.38;;;2.30;1.00;;;;;;5077301;28;20085;-83
2022/03/04 10:06:44;;;;;;;34.97;14.55;;;2.10;1.00;;;;;;5083505;28;20020;-84
2022/03/04 10:09:10;;;;;;;;;;;2.20;1.00;;;;;;5096798;28;20024;-83
2022/03/04 10:11:38;;;;;;;37.13;15.45;;;2.40;1.00;;;;;;5079078;28;19952;-84
2022/03/04 10:14:07;;;;;;;38.10;14.98;;;2.20;1.00;;;;;;5078084;28;20031;-81
2022/03/04 10:16:41;;;;;;;33.83;14.38;;;2.60;1.00;;;;;;5062919;28;20033;-82
2022/03/04 10:19:13;;;;;;;30.30;13.90;;;2.80;1.00;;;;;;5078358;28;20032;-82
2022/03/04 10:21:59;;;;;;;29.20;11.63;;;3.30;1.00;;;;;;5067939;28;20080;-82
2022/03/04 10:24:37;;;;;;;31.58;13.93;;;3.40;1.00;;;;;;5066769;28;20094;-84
2022/03/04 10:27:08;;;;;;;35.50;15.13;;;3.70;1.00;;;;;;5072386;28;20031;-83
2022/03/04 10:29:36;;;;;;;34.15;14.75;;;7.20;99.90;;;;;;5075902;28;20059;-83
2022/03/04 10:32:24;;;;;;;32.97;14.55;;;9.30;99.90;;;;;;5097078;28;20039;-83
2022/03/04 10:34:58;;;;;;;33.90;14.98;;;8.50;99.90;;;;;;5081584;28;20123;-84
2022/03/04 10:37:47;;;;;;;34.35;14.20;;;6.30;99.90;;;;;;5072808;28;20024;-85
2022/03/04 10:40:19;;;;;;;29.50;12.45;;;4.60;99.90;;;;;;5066662;28;20048;-83
2022/03/04 10:42:59;;;;;;;33.45;14.60;;;5.20;99.90;;;;;;5088698;28;20029;-83
2022/03/04 10:45:27;;;;;;;30.33;11.60;;;5.10;99.90;;;;;;5072610;28;20025;-83
2022/03/04 10:48:00;;;;;;;28.20;12.85;;;5.40;99.90;;;;;;5073270;28;20034;-83
2022/03/04 10:50:40;;;;;;;33.97;15.32;;;6.00;99.90;;;;;;5067697;28;20025;-87
2022/03/04 10:53:32;;;;;;;29.48;14.52;;;4.70;99.90;;;;;;5056623;28;20010;-85
2022/03/04 10:56:02;;;;;;;32.75;13.90;;;4.00;1.00;;;;;;5058890;28;20045;-86
2022/03/04 10:58:40;;;;;;;33.00;14.43;;;4.20;99.90;;;;;;5056565;28;20048;-84
2022/03/04 11:01:09;;;;;;;30.33;13.80;;;5.20;99.90;;;;;;5052299;28;20033;-85
2022/03/04 11:03:37;;;;;;;29.45;13.65;;;4.90;99.90;;;;;;5046867;28;20093;-85
2022/03/04 11:06:05;;;;;;;35.25;15.95;;;5.60;99.90;;;;;;5064851;28;20024;-84
2022/03/04 11:08:31;;;;;;;30.40;14.73;;;4.70;99.90;;;;;;5060045;28;20010;-83
2022/03/04 11:10:57;;;;;;;27.20;12.20;;;5.00;1.00;;;;;;5070034;28;20104;-84
2022/03/04 11:13:23;;;;;;;25.80;12.52;;;5.50;99.90;;;;;;5071604;28;20063;-85
2022/03/04 11:15:50;;;;;;;28.45;14.20;;;5.20;99.90;;;;;;5074129;28;20041;-86
2022/03/04 11:18:18;;;;;;;33.08;14.15;;;4.90;1.00;;;;;;5078423;28;20033;-89
2022/03/04 11:20:45;;;;;;;32.88;14.43;;;4.60;99.90;;;;;;5071674;28;20108;-87
2022/03/04 11:23:18;;;;;;;25.63;10.57;;;4.90;1.00;;;;;;5065794;28;20119;-89
2022/03/04 11:25:50;;;;;;;28.65;12.70;;;4.70;1.00;;;;;;5069369;28;20108;-89
2022/03/04 11:28:19;;;;;;;29.10;14.20;;;4.80;1.00;;;;;;5062702;28;20083;-88
2022/03/04 11:30:50;;;;;;;30.25;14.57;;;5.00;1.00;;;;;;5067544;28;20476;-89
2022/03/04 11:33:19;;;;;;;32.88;15.20;;;4.80;99.90;;;;;;5079322;28;20055;-89
2022/03/04 11:36:10;;;;;;;23.40;11.05;;;4.90;99.90;;;;;;5052121;28;20017;-85
2022/03/04 11:38:57;;;;;;;27.10;13.27;;;5.20;99.90;;;;;;5077081;28;20028;-89
2022/03/04 11:41:38;;;;;;;25.33;12.63;;;5.20;99.90;;;;;;5073342;28;20024;-87
2022/03/04 11:44:13;;;;;;;29.77;14.45;;;5.50;1.00;;;;;;5077091;28;20032;-86
2022/03/04 11:46:43;;;;;;;27.30;12.82;;;5.50;99.90;;;;;;5077272;28;20025;-86
2022/03/04 11:49:28;;;;;;;26.83;13.25;;;5.40;99.90;;;;;;5078143;28;20021;-86
2022/03/04 11:52:27;;;;;;;24.25;11.80;;;5.90;99.90;;;;;;5083584;28;20032;-82
2022/03/04 11:54:58;;;;;;;24.30;10.90;;;6.00;99.90;;;;;;5064419;28;20448;-82
2022/03/04 11:57:35;;;;;;;30.58;12.60;;;6.30;99.90;;;;;;5072505;28;20672;-84
2022/03/04 12:00:22;;;;;;;22.88;11.18;;;6.30;99.90;;;;;;5075204;28;20132;-85
2022/03/04 12:02:51;;;;;;;20.08;9.57;;;6.20;99.90;;;;;;5079128;28;20028;-85
2022/03/04 12:05:25;;;;;;;24.50;11.75;;;6.60;99.90;;;;;;5049458;28;20040;-85
2022/03/04 12:07:55;;;;;;;25.45;10.93;;;6.50;99.90;;;;;;5056358;28;20032;-84
2022/03/04 12:10:25;;;;;;;19.38;9.15;;;6.60;99.90;;;;;;5055646;28;20021;-86
2022/03/04 12:13:01;;;;;;;21.58;8.60;;;6.90;99.90;;;;;;5072025;28;20020;-85
2022/03/04 12:15:27;;;;;;;23.05;11.85;;;7.20;99.90;;;;;;5071900;28;20021;-82
2022/03/04 12:18:02;;;;;;;21.40;10.70;;;7.00;99.90;;;;;;5082238;28;20021;-86
2022/03/04 12:20:40;;;;;;;21.48;10.00;;;7.10;99.90;;;;;;5086982;28;20044;-86
2022/03/04 12:23:15;;;;;;;22.90;10.95;;;7.20;99.90;;;;;;5052201;28;20499;-85
2022/03/04 12:25:53;;;;;;;19.60;9.88;;;7.20;99.90;;;;;;5034686;28;20053;-85
2022/03/04 12:28:46;;;;;;;24.52;10.35;;;7.90;99.90;;;;;;5034728;28;20033;-85
2022/03/04 12:31:12;;;;;;;14.48;7.50;;;7.40;99.90;;;;;;5032965;28;20056;-85
2022/03/04 12:33:40;;;;;;;19.10;8.93;;;7.50;99.90;;;;;;5036506;28;20477;-86
2022/03/04 12:36:10;;;;;;;17.77;9.18;;;7.40;99.90;;;;;;5041776;28;20050;-84
2022/03/04 12:38:39;;;;;;;19.48;9.23;;;7.60;99.90;;;;;;5053861;28;20100;-84